createdAt,value
2018-05-24T00:00:18.345Z,2.50
2018-05-24T00:02:45.830Z,2.50
2018-05-24T00:05:12.929Z,3.00
2018-05-24T00:07:40.932Z,2.70
2018-05-24T00:13:24.740Z,2.60
2018-05-24T00:15:51.933Z,2.87
2018-05-24T00:18:20.154Z,2.33
2018-05-24T00:23:48.126Z,2.40
2018-05-24T00:26:15.630Z,2.30
2018-05-24T00:28:42.727Z,2.33
2018-05-24T00:35:31.929Z,3.03
2018-05-24T00:37:59.260Z,2.50
2018-05-24T00:40:27.442Z,2.60
2018-05-24T00:45:45.738Z,2.43
2018-05-24T00:48:12.839Z,2.43
2018-05-24T00:50:41.086Z,2.27
2018-05-24T00:56:21.058Z,2.23
2018-05-24T00:58:48.152Z,2.37
2018-05-24T01:01:15.656Z,2.40
2018-05-24T01:07:23.053Z,2.10
2018-05-24T01:09:51.413Z,2.57
2018-05-24T01:12:18.503Z,2.00
2018-05-24T01:14:46.171Z,2.27
2018-05-24T01:20:09.604Z,3.17
2018-05-24T01:22:36.696Z,2.53
2018-05-24T01:25:04.177Z,2.47
2018-05-24T01:27:31.301Z,2.50
2018-05-24T01:33:51.645Z,2.30
2018-05-24T01:36:19.546Z,2.50
2018-05-24T01:38:47.393Z,2.90
2018-05-24T01:44:15.581Z,2.20
2018-05-24T01:46:42.913Z,2.70
2018-05-24T01:49:11.117Z,2.30
2018-05-24T01:54:28.822Z,2.00
2018-05-24T01:56:57.021Z,3.03
2018-05-24T01:59:24.109Z,2.70
2018-05-24T02:01:51.213Z,2.60
2018-05-24T02:07:10.001Z,2.60
2018-05-24T02:09:37.090Z,2.10
2018-05-24T02:12:04.417Z,2.17
2018-05-24T02:14:31.521Z,2.13
2018-05-24T02:20:11.334Z,1.90
2018-05-24T02:22:38.421Z,2.00
2018-05-24T02:25:05.514Z,2.40
2018-05-24T02:27:32.881Z,2.60
2018-05-24T02:34:46.386Z,2.20
2018-05-24T02:37:14.265Z,2.50
2018-05-24T02:39:41.340Z,2.60
2018-05-24T02:42:08.700Z,2.03
2018-05-24T02:47:32.480Z,2.53
2018-05-24T02:49:59.567Z,2.70
2018-05-24T02:52:27.406Z,2.57
2018-05-24T02:57:41.476Z,2.90
2018-05-24T03:00:08.574Z,2.87
2018-05-24T03:02:35.654Z,2.83
2018-05-24T03:10:15.614Z,2.40
2018-05-24T03:12:42.828Z,2.43
2018-05-24T03:15:11.044Z,2.80
2018-05-24T03:17:38.486Z,2.53
2018-05-24T03:23:16.546Z,2.87
2018-05-24T03:25:43.995Z,2.70
2018-05-24T03:28:11.082Z,2.70
2018-05-24T03:30:39.289Z,2.87
2018-05-24T03:36:15.962Z,2.73
2018-05-24T03:38:43.878Z,3.03
2018-05-24T03:41:11.326Z,2.60
2018-05-24T03:43:38.594Z,2.90
2018-05-24T03:49:01.264Z,3.07
2018-05-24T03:51:28.337Z,2.70
2018-05-24T03:53:55.409Z,2.80
2018-05-24T03:56:22.512Z,2.60
2018-05-24T04:05:06.385Z,2.70
2018-05-24T04:07:33.903Z,2.63
2018-05-24T04:10:01.006Z,2.80
2018-05-24T04:15:38.254Z,2.27
2018-05-24T04:18:06.432Z,2.60
2018-05-24T04:20:34.244Z,2.80
2018-05-24T04:25:56.197Z,3.03
2018-05-24T04:28:23.673Z,2.63
2018-05-24T04:30:50.449Z,3.43
2018-05-24T04:36:08.269Z,2.93
2018-05-24T04:38:36.455Z,2.90
2018-05-24T04:41:03.574Z,3.10
2018-05-24T04:43:30.662Z,2.90
2018-05-24T04:49:57.233Z,3.03
2018-05-24T04:52:24.311Z,3.30
2018-05-24T04:54:51.381Z,3.20
2018-05-24T05:00:44.721Z,3.50
2018-05-24T05:03:12.197Z,3.60
2018-05-24T05:05:39.281Z,3.43
2018-05-24T05:08:06.407Z,3.30
2018-05-24T05:14:03.655Z,3.57
2018-05-24T05:16:32.299Z,3.10
2018-05-24T05:19:00.873Z,2.60
2018-05-24T05:25:04.595Z,3.60
2018-05-24T05:27:32.854Z,3.30
2018-05-24T05:30:00.419Z,3.10
2018-05-24T05:36:10.489Z,2.87
2018-05-24T05:38:37.592Z,2.70
2018-05-24T05:41:05.822Z,3.30
2018-05-24T05:46:20.225Z,3.00
2018-05-24T05:48:48.491Z,3.37
2018-05-24T05:51:15.858Z,3.37
2018-05-24T05:57:02.772Z,3.07
2018-05-24T05:59:30.996Z,2.50
2018-05-24T06:01:59.324Z,2.50
2018-05-24T06:04:26.698Z,2.77
2018-05-24T06:09:49.260Z,2.50
2018-05-24T06:12:16.723Z,2.80
2018-05-24T06:14:43.049Z,3.30
2018-05-24T06:20:07.512Z,3.10
2018-05-24T06:22:35.712Z,2.63
2018-05-24T06:25:02.812Z,2.63
2018-05-24T06:27:30.280Z,2.77
2018-05-24T06:33:16.872Z,3.40
2018-05-24T06:35:43.984Z,2.97
2018-05-24T06:38:11.074Z,3.27
2018-05-24T06:40:38.261Z,3.27
2018-05-24T06:45:56.576Z,3.43
2018-05-24T06:48:24.776Z,3.50
2018-05-24T06:50:51.851Z,3.00
2018-05-24T06:56:06.966Z,3.70
2018-05-24T06:58:34.072Z,3.73
2018-05-24T07:01:02.313Z,3.00
2018-05-24T07:03:29.410Z,3.57
2018-05-24T07:08:52.942Z,3.03
2018-05-24T07:11:22.113Z,3.07
2018-05-24T07:13:50.319Z,3.03
2018-05-24T07:19:56.430Z,3.50
2018-05-24T07:22:23.506Z,3.60
2018-05-24T07:24:50.572Z,3.73
2018-05-24T07:27:18.456Z,3.70
2018-05-24T07:33:26.084Z,3.70
2018-05-24T07:35:53.158Z,4.07
2018-05-24T07:38:20.233Z,3.20
2018-05-24T07:43:27.806Z,4.55
2018-05-24T07:45:55.256Z,3.30
2018-05-24T07:48:23.080Z,3.80
2018-05-24T07:50:50.536Z,3.73
2018-05-24T07:57:02.379Z,3.20
2018-05-24T07:59:30.204Z,3.40
2018-05-24T08:01:57.294Z,3.37
2018-05-24T08:08:18.132Z,3.63
2018-05-24T08:10:45.972Z,3.70
2018-05-24T08:13:13.412Z,4.03
2018-05-24T08:18:34.015Z,3.20
2018-05-24T08:21:03.500Z,3.67
2018-05-24T08:23:30.570Z,4.00
2018-05-24T08:25:57.649Z,3.60
2018-05-24T08:31:02.352Z,4.72
2018-05-24T08:33:30.583Z,4.10
2018-05-24T08:35:57.697Z,4.87
2018-05-24T08:42:25.408Z,4.27
2018-05-24T08:44:54.658Z,4.23
2018-05-24T08:47:21.792Z,4.53
2018-05-24T08:49:48.853Z,4.80
2018-05-24T08:55:37.179Z,3.80
2018-05-24T08:58:04.260Z,3.77
2018-05-24T09:00:31.322Z,4.30
2018-05-24T09:02:58.764Z,4.50
2018-05-24T09:09:41.084Z,3.60
2018-05-24T09:12:08.904Z,4.10
2018-05-24T09:14:36.003Z,3.97
2018-05-24T09:25:30.634Z,3.57
2018-05-24T09:27:58.815Z,4.03
2018-05-24T09:30:25.901Z,3.87
2018-05-24T09:36:27.364Z,4.90
2018-05-24T09:38:55.200Z,3.83
2018-05-24T09:41:22.636Z,3.90
2018-05-24T09:43:50.456Z,3.20
2018-05-24T09:49:18.443Z,3.50
2018-05-24T09:51:45.557Z,3.70
2018-05-24T09:54:12.620Z,3.17
2018-05-24T09:56:40.057Z,3.40
2018-05-24T10:01:47.541Z,3.60
2018-05-24T10:04:15.361Z,4.60
2018-05-24T10:06:43.565Z,4.40
2018-05-24T10:11:51.641Z,5.32
2018-05-24T10:14:18.732Z,4.57
2018-05-24T10:16:45.814Z,4.87
2018-05-24T10:21:53.322Z,5.70
2018-05-24T10:24:20.546Z,5.70
2018-05-24T10:26:48.372Z,5.40
2018-05-24T10:29:15.925Z,5.90
2018-05-24T10:34:36.518Z,5.10
2018-05-24T10:37:03.636Z,6.27
2018-05-24T10:39:30.833Z,6.37
2018-05-24T10:41:57.878Z,5.20
2018-05-24T10:47:05.997Z,5.30
2018-05-24T10:49:33.472Z,5.27
2018-05-24T10:52:00.538Z,5.67
2018-05-24T10:57:08.242Z,5.62
2018-05-24T10:59:35.320Z,4.40
2018-05-24T11:02:02.432Z,5.80
2018-05-24T11:07:12.433Z,4.93
2018-05-24T11:09:40.267Z,3.87
2018-05-24T11:12:07.353Z,4.00
2018-05-24T11:14:35.178Z,3.80
2018-05-24T11:19:43.423Z,5.43
2018-05-24T11:22:10.524Z,4.50
2018-05-24T11:24:37.619Z,4.13
2018-05-24T11:27:05.064Z,4.43
2018-05-24T11:32:10.205Z,4.25
2018-05-24T11:34:37.620Z,3.70
2018-05-24T11:37:05.121Z,3.67
2018-05-24T11:52:54.561Z,4.17
2018-05-24T11:55:21.639Z,3.90
2018-05-24T11:57:48.726Z,4.20
2018-05-24T12:03:02.555Z,5.10
2018-05-24T12:05:30.402Z,4.70
2018-05-24T12:07:57.480Z,4.07
2018-05-24T12:10:24.928Z,4.23
2018-05-24T12:15:51.894Z,5.12
2018-05-24T12:18:19.001Z,4.40
2018-05-24T12:20:46.090Z,3.77
2018-05-24T12:26:07.254Z,4.73
2018-05-24T12:28:35.082Z,4.80
2018-05-24T12:31:02.148Z,4.33
2018-05-24T12:33:30.347Z,4.77
2018-05-24T12:38:35.394Z,5.68
2018-05-24T12:41:02.489Z,4.47
2018-05-24T12:43:30.296Z,4.30
2018-05-24T12:48:46.166Z,6.30
2018-05-24T12:51:13.730Z,5.10
2018-05-24T12:53:40.843Z,4.43
2018-05-24T12:56:07.915Z,4.70
2018-05-24T13:03:20.090Z,5.37
2018-05-24T13:05:48.456Z,5.07
2018-05-24T13:08:15.941Z,5.23
2018-05-24T13:10:43.030Z,5.13
2018-05-24T13:15:58.887Z,5.53
2018-05-24T13:18:26.361Z,5.00
2018-05-24T13:20:53.519Z,5.60
2018-05-24T13:26:09.338Z,5.10
2018-05-24T13:28:36.412Z,5.30
2018-05-24T13:31:03.584Z,5.07
2018-05-24T13:36:56.759Z,3.90
2018-05-24T13:39:23.853Z,4.50
2018-05-24T13:41:50.929Z,4.37
2018-05-24T13:47:32.351Z,4.93
2018-05-24T13:50:00.156Z,5.03
2018-05-24T13:52:27.224Z,6.37
2018-05-24T13:57:46.573Z,5.80
2018-05-24T14:00:14.772Z,5.30
2018-05-24T14:02:41.843Z,5.70
2018-05-24T14:07:36.210Z,6.07
2018-05-24T14:10:04.039Z,5.37
2018-05-24T14:12:31.124Z,5.93
2018-05-24T14:14:58.248Z,5.53
2018-05-24T14:20:40.749Z,5.27
2018-05-24T14:23:08.195Z,5.90
2018-05-24T14:25:36.025Z,5.97
2018-05-24T14:28:03.151Z,4.70
2018-05-24T14:33:10.138Z,5.60
2018-05-24T14:35:37.233Z,4.70
2018-05-24T14:38:05.417Z,4.83
2018-05-24T14:40:33.620Z,4.50
2018-05-24T14:45:38.301Z,4.80
2018-05-24T14:48:05.388Z,4.70
2018-05-24T14:50:32.467Z,4.50
2018-05-24T14:55:47.667Z,3.80
2018-05-24T14:58:15.141Z,3.30
2018-05-24T15:00:42.228Z,3.37
2018-05-24T15:05:47.305Z,3.28
2018-05-24T15:08:15.481Z,3.07
2018-05-24T15:10:43.346Z,3.13
2018-05-24T15:16:54.776Z,2.87
2018-05-24T15:19:21.893Z,3.13
2018-05-24T15:21:48.973Z,2.60
2018-05-24T15:27:00.891Z,3.40
2018-05-24T15:29:29.084Z,3.00
2018-05-24T15:31:56.543Z,2.93
2018-05-24T15:34:23.656Z,2.63
2018-05-24T15:39:33.055Z,3.22
2018-05-24T15:42:00.873Z,2.30
2018-05-24T15:44:27.956Z,3.13
2018-05-24T15:49:56.335Z,2.90
2018-05-24T15:52:23.524Z,2.73
2018-05-24T15:54:51.024Z,2.77
2018-05-24T15:57:18.122Z,3.33
2018-05-24T16:02:28.632Z,3.55
2018-05-24T16:04:55.745Z,2.93
2018-05-24T16:07:23.966Z,2.97
2018-05-24T16:12:34.200Z,3.60
2018-05-24T16:15:00.734Z,3.60
2018-05-24T16:17:28.772Z,3.37
2018-05-24T16:22:36.002Z,4.45
2018-05-24T16:25:04.221Z,3.40
2018-05-24T16:27:31.491Z,3.33
2018-05-24T16:30:00.687Z,3.07
2018-05-24T16:35:20.726Z,4.50
2018-05-24T16:37:49.160Z,3.77
2018-05-24T16:40:17.159Z,3.77
2018-05-24T16:42:45.477Z,3.80
2018-05-24T16:48:00.952Z,3.77
2018-05-24T16:50:28.501Z,3.03
2018-05-24T16:52:55.033Z,3.20
2018-05-24T16:58:03.977Z,3.65
2018-05-24T17:00:32.172Z,3.33
2018-05-24T17:03:00.355Z,3.43
2018-05-24T17:05:29.530Z,3.80
2018-05-24T17:11:06.268Z,3.60
2018-05-24T17:13:34.442Z,3.07
2018-05-24T17:16:02.634Z,3.17
2018-05-24T17:21:31.109Z,3.20
2018-05-24T17:23:59.305Z,3.00
2018-05-24T17:26:27.509Z,3.07
2018-05-24T17:28:55.701Z,3.10
2018-05-24T17:34:23.577Z,3.00
2018-05-24T17:36:52.049Z,3.27
2018-05-24T17:39:20.268Z,3.63
2018-05-24T17:41:48.457Z,2.90
2018-05-24T17:47:10.033Z,3.50
2018-05-24T17:49:39.484Z,3.37
2018-05-24T17:52:07.676Z,3.10
2018-05-24T17:57:13.860Z,3.80
2018-05-24T17:59:43.531Z,3.30
2018-05-24T18:02:11.721Z,3.10
2018-05-24T18:04:38.281Z,3.53
2018-05-24T18:10:07.371Z,3.10
2018-05-24T18:12:35.545Z,2.87
2018-05-24T18:15:03.033Z,3.47
2018-05-24T18:20:53.923Z,3.20
2018-05-24T18:23:22.137Z,2.77
2018-05-24T18:25:50.331Z,3.27
2018-05-24T18:28:18.159Z,3.10
2018-05-24T18:35:34.557Z,3.60
2018-05-24T18:38:01.676Z,3.33
2018-05-24T18:40:29.870Z,3.30
2018-05-24T18:42:58.126Z,2.87
2018-05-24T18:50:24.474Z,2.37
2018-05-24T18:52:52.689Z,2.63
2018-05-24T18:55:20.895Z,2.87
2018-05-24T18:57:49.102Z,2.63
2018-05-24T19:03:34.777Z,2.43
2018-05-24T19:06:02.280Z,2.70
2018-05-24T19:08:29.750Z,2.57
2018-05-24T19:13:51.127Z,2.60
2018-05-24T19:16:18.209Z,2.43
2018-05-24T19:21:32.657Z,3.10
2018-05-24T19:23:59.738Z,3.03
2018-05-24T19:26:26.833Z,3.00
2018-05-24T19:28:55.059Z,2.67
2018-05-24T19:34:35.654Z,2.67
2018-05-24T19:37:03.101Z,2.63
2018-05-24T19:39:30.221Z,2.47
2018-05-24T19:41:57.330Z,2.80
2018-05-24T19:47:50.557Z,2.40
2018-05-24T19:50:17.671Z,2.30
2018-05-24T19:52:44.761Z,2.03
2018-05-24T19:55:12.618Z,3.10
2018-05-24T20:01:25.961Z,2.60
2018-05-24T20:03:53.037Z,3.00
2018-05-24T20:06:20.865Z,3.00
2018-05-24T20:08:48.066Z,2.60
2018-05-24T20:14:41.817Z,2.90
2018-05-24T20:17:09.634Z,2.70
2018-05-24T20:19:37.840Z,2.90
2018-05-24T20:22:04.950Z,2.57
2018-05-24T20:27:58.997Z,2.60
2018-05-24T20:30:26.058Z,2.70
2018-05-24T20:32:53.175Z,2.40
2018-05-24T20:39:21.098Z,2.27
2018-05-24T20:41:48.191Z,2.50
2018-05-24T20:44:15.273Z,2.40
2018-05-24T20:49:57.162Z,2.73
2018-05-24T20:52:24.604Z,2.37
2018-05-24T20:54:51.696Z,2.57
2018-05-24T21:00:12.484Z,2.83
2018-05-24T21:02:40.357Z,2.37
2018-05-24T21:05:07.454Z,3.00
2018-05-24T21:07:34.525Z,2.83
2018-05-24T21:12:53.803Z,2.93
2018-05-24T21:15:21.288Z,3.60
2018-05-24T21:17:48.354Z,3.30
2018-05-24T21:24:10.778Z,2.87
2018-05-24T21:26:37.872Z,2.90
2018-05-24T21:29:05.697Z,3.40
2018-05-24T21:31:32.804Z,3.47
2018-05-24T21:37:40.212Z,3.30
2018-05-24T21:40:07.305Z,3.13
2018-05-24T21:42:34.761Z,2.50
2018-05-24T21:47:48.324Z,2.90
2018-05-24T21:50:15.438Z,2.50
2018-05-24T21:52:42.513Z,2.57
2018-05-24T21:58:28.249Z,2.60
2018-05-24T22:00:56.420Z,2.70
2018-05-24T22:03:23.700Z,2.80
2018-05-24T22:09:15.764Z,2.67
2018-05-24T22:11:42.913Z,2.60
2018-05-24T22:17:39.653Z,2.80
2018-05-24T22:20:06.788Z,2.30
2018-05-24T22:22:35.038Z,2.90
2018-05-24T22:25:03.353Z,2.73
2018-05-24T22:41:36.749Z,3.90
2018-05-24T22:44:04.593Z,3.53
2018-05-24T22:46:32.781Z,3.00
2018-05-24T22:52:30.888Z,2.83
2018-05-24T22:54:59.101Z,2.70
2018-05-24T22:57:26.189Z,2.77
2018-05-24T22:59:53.261Z,2.50
2018-05-24T23:09:22.123Z,2.40
2018-05-24T23:11:49.585Z,2.60
2018-05-24T23:14:16.689Z,3.23
2018-05-24T23:21:51.735Z,3.55
2018-05-24T23:24:19.914Z,2.50
2018-05-24T23:26:47.074Z,3.17
2018-05-24T23:29:14.545Z,2.83
2018-05-24T23:34:30.529Z,3.20
2018-05-24T23:36:58.700Z,2.87
2018-05-24T23:39:25.781Z,3.47
2018-05-24T23:41:52.881Z,2.70
2018-05-24T23:47:57.435Z,2.63
2018-05-24T23:50:24.501Z,3.23
2018-05-24T23:52:51.581Z,2.60
2018-05-24T23:55:19.974Z,2.77
